Time;durP1;ratioP1;P1;durP2;ratioP2;P2;SDS_P1;SDS_P2;PMS_P1;PMS_P2;Temp;Humidity;BMP_temperature;BMP_pressure;BME280_temperature;BME280_humidity;BME280_pressure;Samples;Min_cycle;Max_cycle;Signal;HPM_P1;HPM_P2
2022/02/05 00:05:40;;;;;;;36.03;21.08;;;;;;;-145.63;100.00;61273.97;4983583;28;20082;-65
2022/02/05 00:43:12;;;;;;;36.97;21.23;;;;;;;-145.63;100.00;61273.97;4983193;28;20027;-64
2022/02/05 00:45:44;;;;;;;33.25;20.95;;;;;;;-145.63;100.00;61273.97;4980723;28;20026;-65
2022/02/05 00:48:10;;;;;;;34.15;20.63;;;;;;;-145.63;100.00;61273.97;4985644;28;20039;-64
2022/02/05 00:50:40;;;;;;;36.10;21.17;;;;;;;-145.63;100.00;61273.97;4984417;28;20031;-64
2022/02/05 00:53:15;;;;;;;33.50;20.58;;;;;;;-145.63;100.00;61273.97;4983851;28;20022;-64
2022/02/05 00:55:49;;;;;;;33.60;21.17;;;;;;;-145.63;100.00;61273.97;4983708;28;20095;-64
2022/02/05 00:58:14;;;;;;;33.40;20.52;;;;;;;-145.63;100.00;61273.97;4984379;28;20070;-64
2022/02/05 01:00:40;;;;;;;34.90;20.48;;;;;;;-145.63;100.00;61273.97;4984237;28;20027;-65
2022/02/05 01:03:05;;;;;;;32.95;19.83;;;;;;;-145.63;100.00;61273.97;4984250;28;20338;-64
2022/02/05 01:05:35;;;;;;;33.30;19.23;;;;;;;-145.63;100.00;61273.97;4983911;28;20231;-65
2022/02/05 01:08:00;;;;;;;30.20;19.20;;;;;;;-145.63;100.00;61273.97;4984138;28;20034;-65
2022/02/05 01:10:27;;;;;;;35.08;20.33;;;;;;;-145.63;100.00;61273.97;4983921;28;20062;-65
2022/02/05 01:13:07;;;;;;;32.20;19.80;;;;;;;-145.63;100.00;61273.97;4982599;28;20046;-64
2022/02/05 01:15:39;;;;;;;37.35;20.85;;;;;;;-145.63;100.00;61273.97;5015488;28;20077;-64
2022/02/05 01:18:08;;;;;;;35.25;21.05;;;;;;;-145.63;100.00;61273.97;4983980;28;20027;-64
2022/02/05 01:23:12;;;;;;;36.75;21.13;;;;;;;-145.63;100.00;61273.97;4989702;28;20047;-65
2022/02/05 01:25:44;;;;;;;31.73;19.08;;;;;;;-145.63;100.00;61273.97;4978377;28;20082;-64
2022/02/05 01:28:15;;;;;;;35.22;19.50;;;;;;;-145.63;100.00;61273.97;4979915;28;20038;-67
2022/02/05 01:30:45;;;;;;;33.20;21.02;;;;;;;-145.63;100.00;61273.97;4982146;28;20259;-66
2022/02/05 01:52:12;;;;;;;31.35;20.05;;;;;;;-145.63;100.00;61273.97;4982487;28;20030;-65
2022/02/05 02:05:31;;;;;;;32.63;20.13;;;;;;;-145.63;100.00;61273.97;4986332;28;20053;-65
2022/02/05 02:21:43;;;;;;;35.72;20.35;;;;;;;-145.63;100.00;61273.97;4965834;28;20255;-65
2022/02/05 02:24:16;;;;;;;30.17;19.27;;;;;;;-145.63;100.00;61273.97;4984573;28;20365;-63
2022/02/05 02:27:00;;;;;;;32.38;19.58;;;;;;;-145.63;100.00;61273.97;4986797;28;20038;-64
2022/02/05 02:29:58;;;;;;;34.60;21.92;;;;;;;-145.63;100.00;61273.97;4986891;28;20494;-64
2022/02/05 02:32:15;;;;;;;33.60;20.15;;;;;;;-145.63;100.00;61273.97;4986585;28;20394;-64
2022/02/05 02:34:42;;;;;;;34.00;19.25;;;;;;;-145.63;100.00;61273.97;4985347;28;20217;-64
2022/02/05 02:37:16;;;;;;;31.08;19.05;;;;;;;-145.63;100.00;61273.97;4986737;28;20030;-65
2022/02/05 02:42:17;;;;;;;36.53;20.70;;;;;;;-145.63;100.00;61273.97;4986656;28;20046;-62
2022/02/05 02:44:43;;;;;;;35.40;21.20;;;;;;;-145.63;100.00;61273.97;4986402;28;20034;-64
2022/02/05 02:47:08;;;;;;;33.17;19.77;;;;;;;-145.63;100.00;61273.97;4986355;28;20114;-64
2022/02/05 02:49:47;;;;;;;34.70;21.50;;;;;;;-145.63;100.00;61273.97;4986665;28;20219;-65
2022/02/05 02:57:57;;;;;;;32.95;19.35;;;;;;;-145.63;100.00;61273.97;4986382;28;20228;-65
2022/02/05 03:00:23;;;;;;;38.10;21.13;;;;;;;-145.63;100.00;61273.97;4985079;28;20252;-65
2022/02/05 03:02:49;;;;;;;36.92;21.35;;;;;;;-145.63;100.00;61273.97;4986244;28;20030;-64
2022/02/05 03:05:15;;;;;;;32.03;19.10;;;;;;;-145.63;100.00;61273.97;4986367;28;20315;-63
2022/02/05 03:07:40;;;;;;;32.38;19.35;;;;;;;-145.63;100.00;61273.97;4986100;28;20027;-63
2022/02/05 03:10:06;;;;;;;34.13;19.70;;;;;;;-145.63;100.00;61273.97;4985898;28;20043;-65
2022/02/05 03:12:34;;;;;;;37.28;20.90;;;;;;;-145.63;100.00;61273.97;4985711;28;20211;-65
2022/02/05 03:15:03;;;;;;;32.20;20.30;;;;;;;-145.63;100.00;61273.97;4985248;28;20070;-66
2022/02/05 03:17:37;;;;;;;36.17;21.35;;;;;;;-145.63;100.00;61273.97;5000917;28;20342;-64
2022/02/05 03:20:03;;;;;;;29.20;18.23;;;;;;;-145.63;100.00;61273.97;4984672;28;20027;-64
2022/02/05 03:22:29;;;;;;;34.10;20.40;;;;;;;-145.63;100.00;61273.97;4985526;28;20027;-65
2022/02/05 03:24:55;;;;;;;33.03;19.85;;;;;;;-145.63;100.00;61273.97;4985602;28;20034;-65
2022/02/05 03:27:21;;;;;;;31.75;19.98;;;;;;;-145.63;100.00;61273.97;4985509;28;20061;-65
2022/02/05 03:29:49;;;;;;;34.33;19.80;;;;;;;-145.63;100.00;61273.97;4985448;28;20077;-65
2022/02/05 03:32:16;;;;;;;35.30;20.13;;;;;;;-145.63;100.00;61273.97;4985781;28;20053;-65
2022/02/05 03:34:42;;;;;;;32.78;19.77;;;;;;;-145.63;100.00;61273.97;4983667;28;20031;-64
2022/02/05 03:37:08;;;;;;;36.42;20.50;;;;;;;-145.63;100.00;61273.97;4985463;28;20033;-66
2022/02/05 03:39:34;;;;;;;35.20;19.80;;;;;;;-145.63;100.00;61273.97;4985468;28;20217;-66
2022/02/05 03:42:00;;;;;;;33.20;19.73;;;;;;;-145.63;100.00;61273.97;4985464;28;20022;-66
2022/02/05 03:44:26;;;;;;;33.45;19.33;;;;;;;-145.63;100.00;61273.97;4985102;28;20334;-66
2022/02/05 03:46:53;;;;;;;29.90;19.70;;;;;;;-145.63;100.00;61273.97;4985212;28;20026;-66
2022/02/05 03:49:20;;;;;;;34.35;19.80;;;;;;;-145.63;100.00;61273.97;5016779;28;20031;-65
2022/02/05 03:51:46;;;;;;;33.65;20.65;;;;;;;-145.63;100.00;61273.97;4985318;28;20023;-65
2022/02/05 03:54:13;;;;;;;40.78;20.60;;;;;;;-145.63;100.00;61273.97;4985401;28;20030;-66
2022/02/05 03:56:39;;;;;;;36.47;20.65;;;;;;;-145.63;100.00;61273.97;4985247;28;20054;-66
2022/02/05 03:59:05;;;;;;;36.28;21.23;;;;;;;-145.63;100.00;61273.97;4984998;28;20101;-66
2022/02/05 04:01:30;;;;;;;33.42;21.65;;;;;;;-145.63;100.00;61273.97;4985120;28;20259;-65
2022/02/05 04:03:56;;;;;;;36.97;21.73;;;;;;;-145.63;100.00;61273.97;4985021;28;20058;-66
2022/02/05 04:06:21;;;;;;;42.53;20.75;;;;;;;-145.63;100.00;61273.97;4984799;28;20085;-66
2022/02/05 04:08:49;;;;;;;33.92;19.65;;;;;;;-145.63;100.00;61273.97;4984856;28;20046;-66
2022/02/05 04:16:43;;;;;;;33.33;20.63;;;;;;;-145.63;100.00;61273.97;4983745;28;20023;-65
2022/02/05 04:19:09;;;;;;;37.10;22.02;;;;;;;-145.63;100.00;61273.97;5016238;28;20041;-64
2022/02/05 04:21:35;;;;;;;35.85;21.33;;;;;;;-145.63;100.00;61273.97;4984811;28;20073;-65
2022/02/05 04:24:02;;;;;;;36.35;20.83;;;;;;;-145.63;100.00;61273.97;4984648;28;20022;-65
2022/02/05 04:26:29;;;;;;;40.58;22.33;;;;;;;-145.63;100.00;61273.97;4984290;28;20046;-65
2022/02/05 04:28:55;;;;;;;37.53;22.55;;;;;;;-145.63;100.00;61273.97;4984466;28;20031;-65
2022/02/05 04:31:21;;;;;;;40.17;22.00;;;;;;;-145.63;100.00;61273.97;4984702;28;20030;-65
2022/02/05 04:33:46;;;;;;;40.60;21.25;;;;;;;-145.63;100.00;61273.97;4974718;28;20190;-65
2022/02/05 04:36:13;;;;;;;36.75;22.05;;;;;;;-145.63;100.00;61273.97;4980970;28;20097;-63
2022/02/05 04:38:41;;;;;;;33.60;20.77;;;;;;;-145.63;100.00;61273.97;4984254;28;20360;-63
2022/02/05 04:41:20;;;;;;;34.47;20.42;;;;;;;-145.63;100.00;61273.97;4984257;28;20236;-64
2022/02/05 05:10:04;;;;;;;27.63;17.90;;;;;;;-145.63;100.00;61273.97;4984319;28;20042;-65
2022/02/05 05:15:32;;;;;;;30.98;17.83;;;;;;;-145.63;100.00;61273.97;4984892;28;20348;-65
2022/02/05 05:20:55;;;;;;;29.08;17.23;;;;;;;-145.63;100.00;61273.97;4970242;28;20033;-64
2022/02/05 05:23:21;;;;;;;35.50;19.92;;;;;;;-145.63;100.00;61273.97;4983745;28;20051;-64
2022/02/05 05:25:47;;;;;;;32.00;19.25;;;;;;;-145.63;100.00;61273.97;4983618;28;20031;-63
2022/02/05 05:28:13;;;;;;;36.45;19.90;;;;;;;-145.63;100.00;61273.97;4984231;28;20105;-64
2022/02/05 05:30:39;;;;;;;32.97;19.63;;;;;;;-145.63;100.00;61273.97;4982440;28;20089;-64
2022/02/05 05:33:04;;;;;;;31.27;18.13;;;;;;;-145.63;100.00;61273.97;4979448;28;20212;-63
2022/02/05 05:35:30;;;;;;;33.75;19.52;;;;;;;-145.63;100.00;61273.97;4979305;28;20038;-64
2022/02/05 05:37:55;;;;;;;28.45;17.95;;;;;;;-145.63;100.00;61273.97;4978467;28;20057;-64
2022/02/05 05:40:22;;;;;;;30.52;18.02;;;;;;;-145.63;100.00;61273.97;4979080;28;20026;-64
2022/02/05 05:42:56;;;;;;;34.55;20.05;;;;;;;-145.63;100.00;61273.97;4987432;28;20018;-65
2022/02/05 05:45:36;;;;;;;31.60;19.45;;;;;;;-145.63;100.00;61273.97;4987635;28;20054;-64
2022/02/05 05:48:14;;;;;;;33.38;19.52;;;;;;;-145.63;100.00;61273.97;4987407;28;20077;-65
2022/02/05 05:53:13;;;;;;;36.40;20.15;;;;;;;-145.63;100.00;61273.97;4987156;28;20073;-64
2022/02/05 05:55:43;;;;;;;35.33;20.75;;;;;;;-145.63;100.00;61273.97;4986555;28;20032;-64
2022/02/05 05:58:08;;;;;;;37.47;21.55;;;;;;;-145.63;100.00;61273.97;4987627;28;20078;-64
2022/02/05 06:00:34;;;;;;;33.30;20.00;;;;;;;-145.63;100.00;61273.97;4987423;28;20255;-65
2022/02/05 06:03:04;;;;;;;39.00;22.52;;;;;;;-145.63;100.00;61273.97;4986141;28;20397;-63
2022/02/05 06:05:30;;;;;;;38.08;22.23;;;;;;;-145.63;100.00;61273.97;4985107;28;20049;-63
2022/02/05 06:07:55;;;;;;;38.83;22.17;;;;;;;-145.63;100.00;61273.97;4987212;28;20022;-64
2022/02/05 06:10:21;;;;;;;38.13;22.08;;;;;;;-145.63;100.00;61273.97;4986899;28;20031;-64
2022/02/05 06:12:47;;;;;;;43.10;23.42;;;;;;;-145.63;100.00;61273.97;4986605;28;20440;-64
2022/02/05 06:15:13;;;;;;;43.03;22.95;;;;;;;-145.63;100.00;61273.97;4986863;28;20070;-64
2022/02/05 06:17:38;;;;;;;37.45;22.52;;;;;;;-145.63;100.00;61273.97;5002138;28;20022;-64
2022/02/05 06:20:06;;;;;;;42.00;23.50;;;;;;;-145.63;100.00;61273.97;4985503;28;20034;-66
2022/02/05 06:22:32;;;;;;;41.55;23.98;;;;;;;-145.63;100.00;61273.97;4985645;28;20311;-64
2022/02/05 06:24:58;;;;;;;41.17;23.98;;;;;;;-145.63;100.00;61273.97;4986676;28;20069;-65
2022/02/05 06:27:23;;;;;;;39.78;23.23;;;;;;;-145.63;100.00;61273.97;4982588;28;20066;-64
2022/02/05 06:29:49;;;;;;;35.65;21.85;;;;;;;-145.63;100.00;61273.97;4985002;28;20027;-62
2022/02/05 06:32:17;;;;;;;43.42;25.25;;;;;;;-145.63;100.00;61273.97;4986692;28;20062;-62
2022/02/05 06:34:44;;;;;;;40.83;23.95;;;;;;;-145.63;100.00;61273.97;4981060;28;20316;-61
2022/02/05 06:37:10;;;;;;;41.83;23.95;;;;;;;-145.63;100.00;61273.97;4986137;28;20046;-61
2022/02/05 06:39:36;;;;;;;46.83;25.85;;;;;;;-145.63;100.00;61273.97;4986510;28;20025;-63
2022/02/05 06:42:02;;;;;;;43.42;24.73;;;;;;;-145.63;100.00;61273.97;4986493;28;20074;-61
2022/02/05 06:44:27;;;;;;;41.65;24.92;;;;;;;-145.63;100.00;61273.97;4980576;28;20046;-63
2022/02/05 06:46:53;;;;;;;44.60;25.38;;;;;;;-145.63;100.00;61273.97;4986052;28;20120;-62
2022/02/05 06:49:20;;;;;;;44.10;25.75;;;;;;;-145.63;100.00;61273.97;4985991;28;20086;-61
2022/02/05 06:51:46;;;;;;;43.25;24.58;;;;;;;-145.63;100.00;61273.97;4985510;28;20046;-62
2022/02/05 06:54:11;;;;;;;46.17;26.15;;;;;;;-145.63;100.00;61273.97;4980846;28;20027;-62
2022/02/05 06:56:37;;;;;;;49.17;26.33;;;;;;;-145.63;100.00;61273.97;4982519;28;20037;-62
2022/02/05 06:59:02;;;;;;;44.58;24.88;;;;;;;-145.63;100.00;61273.97;5016972;28;20315;-62
2022/02/05 07:01:28;;;;;;;46.63;26.70;;;;;;;-145.63;100.00;61273.97;4991340;28;20054;-62
2022/02/05 07:03:54;;;;;;;46.78;26.00;;;;;;;-145.63;100.00;61273.97;4985554;28;20031;-62
2022/02/05 07:06:19;;;;;;;47.90;26.65;;;;;;;-145.63;100.00;61273.97;4985262;28;20049;-63
2022/02/05 07:08:45;;;;;;;50.35;27.60;;;;;;;-145.63;100.00;61273.97;4985380;28;20046;-61
2022/02/05 07:11:10;;;;;;;45.83;28.00;;;;;;;-145.63;100.00;61273.97;4985378;28;20302;-63
2022/02/05 07:13:36;;;;;;;50.13;28.77;;;;;;;-145.63;100.00;61273.97;4985675;28;20027;-62
2022/02/05 07:29:13;;;;;;;51.67;27.77;;;;;;;-145.63;100.00;61273.97;4985215;28;20073;-61
2022/02/05 07:31:42;;;;;;;54.17;28.23;;;;;;;-145.63;100.00;61273.97;4984212;28;20030;-62
2022/02/05 07:34:08;;;;;;;47.13;26.15;;;;;;;-145.63;100.00;61273.97;4985363;28;20296;-62
2022/02/05 07:36:34;;;;;;;50.88;28.33;;;;;;;-145.63;100.00;61273.97;4983968;28;20033;-62
2022/02/05 07:38:59;;;;;;;50.67;28.70;;;;;;;-145.63;100.00;61273.97;4985530;28;20019;-62
2022/02/05 07:41:25;;;;;;;47.15;26.65;;;;;;;-145.63;100.00;61273.97;4984879;28;20045;-62
2022/02/05 07:43:51;;;;;;;53.53;27.83;;;;;;;-145.63;100.00;61273.97;4985215;28;20021;-62
2022/02/05 07:46:16;;;;;;;53.75;28.83;;;;;;;-145.63;100.00;61273.97;4983994;28;20027;-62
2022/02/05 07:48:42;;;;;;;54.58;29.85;;;;;;;-145.63;100.00;61273.97;4984059;28;20027;-62
2022/02/05 07:51:09;;;;;;;52.72;28.38;;;;;;;-145.63;100.00;61273.97;4985194;28;20094;-61
2022/02/05 07:53:36;;;;;;;49.83;27.50;;;;;;;-145.63;100.00;61273.97;4983601;28;20022;-61
2022/02/05 07:56:03;;;;;;;52.40;28.17;;;;;;;-145.63;100.00;61273.97;4984730;28;20219;-62
2022/02/05 07:58:30;;;;;;;51.22;28.10;;;;;;;-145.63;100.00;61273.97;4983630;28;20039;-62
2022/02/05 08:00:55;;;;;;;52.42;28.67;;;;;;;-145.63;100.00;61273.97;4967467;28;20027;-61
2022/02/05 08:03:21;;;;;;;58.92;29.70;;;;;;;-145.63;100.00;61273.97;4984876;28;20050;-61
2022/02/05 08:05:46;;;;;;;54.15;28.63;;;;;;;-145.63;100.00;61273.97;4977446;28;20046;-63
2022/02/05 08:08:16;;;;;;;50.05;28.60;;;;;;;-145.63;100.00;61273.97;4974095;28;20026;-61
2022/02/05 08:10:54;;;;;;;53.67;29.13;;;;;;;-145.63;100.00;61273.97;4984514;28;20042;-61
2022/02/05 08:13:21;;;;;;;53.63;29.40;;;;;;;-145.63;100.00;61273.97;4984420;28;20034;-62
2022/02/05 08:15:54;;;;;;;53.67;30.42;;;;;;;-145.63;100.00;61273.97;4983754;28;20116;-63
2022/02/05 08:18:20;;;;;;;51.42;29.70;;;;;;;-145.63;100.00;61273.97;4984502;28;20038;-62
2022/02/05 08:20:45;;;;;;;57.70;29.92;;;;;;;-145.63;100.00;61273.97;4984567;28;20254;-62
2022/02/05 08:23:11;;;;;;;55.97;29.63;;;;;;;-145.63;100.00;61273.97;4975951;28;20042;-62
2022/02/05 08:25:36;;;;;;;55.67;31.35;;;;;;;-145.63;100.00;61273.97;4979919;28;20050;-63
2022/02/05 08:28:03;;;;;;;53.70;30.67;;;;;;;-145.63;100.00;61273.97;4982996;28;20330;-62
2022/02/05 08:30:28;;;;;;;55.80;31.02;;;;;;;-145.63;100.00;61273.97;4984231;28;20045;-62
2022/02/05 08:32:54;;;;;;;52.63;29.70;;;;;;;-145.63;100.00;61273.97;4980039;28;20039;-62
2022/02/05 08:35:19;;;;;;;56.47;31.42;;;;;;;-145.63;100.00;61273.97;4973451;28;20023;-62
2022/02/05 08:37:47;;;;;;;59.85;34.08;;;;;;;-145.63;100.00;61273.97;4983240;28;20019;-62
2022/02/05 08:40:13;;;;;;;55.08;30.90;;;;;;;-145.63;100.00;61273.97;4983217;28;20034;-62
2022/02/05 08:42:39;;;;;;;57.30;32.40;;;;;;;-145.63;100.00;61273.97;4983064;28;20026;-63
2022/02/05 08:45:05;;;;;;;51.45;29.40;;;;;;;-145.63;100.00;61273.97;4979417;28;20022;-64
2022/02/05 08:47:31;;;;;;;56.58;31.50;;;;;;;-145.63;100.00;61273.97;4982778;28;20034;-65
2022/02/05 08:49:57;;;;;;;50.50;28.77;;;;;;;-145.63;100.00;61273.97;4982609;28;20046;-65
2022/02/05 08:52:23;;;;;;;58.75;32.72;;;;;;;-145.63;100.00;61273.97;4982487;28;20058;-66
2022/02/05 08:54:49;;;;;;;54.40;31.58;;;;;;;-145.63;100.00;61273.97;4983430;28;20344;-65
2022/02/05 08:57:15;;;;;;;54.10;31.10;;;;;;;-145.63;100.00;61273.97;4998817;28;20038;-66
2022/02/05 08:59:51;;;;;;;51.05;29.60;;;;;;;-145.63;100.00;61273.97;4981332;28;20137;-65
2022/02/05 09:02:46;;;;;;;50.05;30.65;;;;;;;-145.63;100.00;61273.97;4982713;28;20029;-65
2022/02/05 09:05:16;;;;;;;52.90;30.33;;;;;;;-145.63;100.00;61273.97;4980742;28;20089;-65
2022/02/05 09:07:43;;;;;;;48.85;27.88;;;;;;;-145.63;100.00;61273.97;4982775;28;20111;-67
2022/02/05 09:10:27;;;;;;;52.83;31.52;;;;;;;-145.63;100.00;61273.97;4982810;28;20038;-67
2022/02/05 09:15:31;;;;;;;48.55;28.95;;;;;;;-145.63;100.00;61273.97;4981292;28;20037;-63
2022/02/05 09:17:57;;;;;;;49.40;28.88;;;;;;;-145.63;100.00;61273.97;4981213;28;20022;-64
2022/02/05 09:20:25;;;;;;;56.83;29.88;;;;;;;-145.63;100.00;61273.97;4981600;28;20097;-66
2022/02/05 09:22:50;;;;;;;53.15;28.42;;;;;;;-145.63;100.00;61273.97;4981460;28;20055;-64
2022/02/05 09:25:16;;;;;;;47.30;27.48;;;;;;;-145.63;100.00;61273.97;4981092;28;20026;-65
2022/02/05 09:27:45;;;;;;;49.33;27.55;;;;;;;-145.63;100.00;61273.97;4982400;28;20080;-65
2022/02/05 09:30:16;;;;;;;50.65;29.48;;;;;;;-145.63;100.00;61273.97;4982208;28;20250;-65
2022/02/05 09:32:43;;;;;;;51.67;29.70;;;;;;;-145.63;100.00;61273.97;4980731;28;20030;-65
2022/02/05 09:35:10;;;;;;;49.75;26.83;;;;;;;-145.63;100.00;61273.97;4981811;28;20061;-66
2022/02/05 09:37:36;;;;;;;48.72;28.58;;;;;;;-145.63;100.00;61273.97;4979873;28;20031;-65
2022/02/05 09:40:04;;;;;;;44.80;27.13;;;;;;;-145.63;100.00;61273.97;4981901;28;20081;-66
2022/02/05 09:42:30;;;;;;;48.88;28.75;;;;;;;-145.63;100.00;61273.97;4981519;28;20066;-65
2022/02/05 09:45:02;;;;;;;45.53;27.48;;;;;;;-145.63;100.00;61273.97;4981972;28;20061;-66
2022/02/05 09:47:29;;;;;;;47.80;26.98;;;;;;;-145.63;100.00;61273.97;4981916;28;20034;-65
2022/02/05 09:49:55;;;;;;;41.83;25.95;;;;;;;-145.63;100.00;61273.97;4981243;28;20031;-64
2022/02/05 09:52:25;;;;;;;40.72;23.45;;;;;;;-145.63;100.00;61273.97;4981318;28;20330;-65
2022/02/05 09:54:52;;;;;;;36.55;22.17;;;;;;;-145.63;100.00;61273.97;4981317;28;20033;-65
2022/02/05 09:57:19;;;;;;;38.25;21.10;;;;;;;-145.63;100.00;61273.97;4982069;28;20081;-66
2022/02/05 09:59:55;;;;;;;40.13;23.30;;;;;;;-145.63;100.00;61273.97;4982015;28;20106;-65
2022/02/05 10:02:40;;;;;;;40.53;24.27;;;;;;;-145.63;100.00;61273.97;4981947;28;20041;-65
2022/02/05 10:05:10;;;;;;;37.17;22.05;;;;;;;-145.63;100.00;61273.97;4981466;28;20362;-66
2022/02/05 10:07:50;;;;;;;39.38;23.35;;;;;;;-145.63;100.00;61273.97;4982945;28;20037;-65
2022/02/05 10:10:16;;;;;;;46.95;24.35;;;;;;;-145.63;100.00;61273.97;4982961;28;20035;-65
2022/02/05 10:12:42;;;;;;;39.55;23.15;;;;;;;-145.63;100.00;61273.97;4982976;28;20037;-66
2022/02/05 10:15:10;;;;;;;38.95;22.10;;;;;;;-145.63;100.00;61273.97;4982620;28;20030;-65
2022/02/05 10:17:37;;;;;;;39.35;24.20;;;;;;;-145.63;100.00;61273.97;4983227;28;20035;-65
2022/02/05 10:20:05;;;;;;;36.28;21.70;;;;;;;-145.63;100.00;61273.97;4982111;28;20061;-64
2022/02/05 10:22:39;;;;;;;38.65;22.40;;;;;;;-145.63;100.00;61273.97;4982977;28;20038;-63
2022/02/05 10:25:18;;;;;;;37.08;22.48;;;;;;;-145.63;100.00;61273.97;4983373;28;20042;-63
2022/02/05 10:27:45;;;;;;;37.72;23.13;;;;;;;-145.63;100.00;61273.97;4971337;28;20054;-63
2022/02/05 10:30:11;;;;;;;37.28;22.67;;;;;;;-145.63;100.00;61273.97;4983699;28;20046;-65
2022/02/05 10:32:42;;;;;;;38.08;23.58;;;;;;;-145.63;100.00;61273.97;4984781;28;20033;-63
2022/02/05 10:35:21;;;;;;;40.65;24.63;;;;;;;-145.63;100.00;61273.97;4985690;28;20338;-63
2022/02/05 10:37:54;;;;;;;41.58;23.90;;;;;;;-145.63;100.00;61273.97;4986033;28;20057;-62
2022/02/05 10:40:23;;;;;;;47.70;26.20;;;;;;;-145.63;100.00;61273.97;4986260;28;20105;-63
2022/02/05 10:43:01;;;;;;;39.92;24.20;;;;;;;-145.63;100.00;61273.97;4986324;28;20200;-63
2022/02/05 10:45:31;;;;;;;44.00;24.58;;;;;;;-145.63;100.00;61273.97;4986157;28;20094;-62
2022/02/05 10:47:58;;;;;;;43.70;24.52;;;;;;;-145.63;100.00;61273.97;4985754;28;20399;-62
2022/02/05 10:50:34;;;;;;;41.20;23.65;;;;;;;-145.63;100.00;61273.97;4985934;28;20027;-61
2022/02/05 10:53:23;;;;;;;42.53;23.88;;;;;;;-145.63;100.00;61273.97;4986031;28;20035;-62
2022/02/05 10:58:47;;;;;;;41.55;23.27;;;;;;;-145.63;100.00;61273.97;4986115;28;20103;-64
2022/02/05 11:07:20;;;;;;;40.30;23.30;;;;;;;-145.63;100.00;61273.97;4985399;28;20026;-65
2022/02/05 11:09:51;;;;;;;38.45;22.65;;;;;;;-145.63;100.00;61273.97;4984296;28;20129;-64
2022/02/05 11:20:10;;;;;;;34.88;20.95;;;;;;;-145.63;100.00;61273.97;4985235;28;20094;-66
2022/02/05 11:22:49;;;;;;;39.25;21.58;;;;;;;-145.63;100.00;61273.97;4985424;28;20077;-68
2022/02/05 11:25:15;;;;;;;34.50;19.50;;;;;;;-145.63;100.00;61273.97;4970733;28;20094;-66
2022/02/05 11:27:46;;;;;;;34.33;19.23;;;;;;;-145.63;100.00;61273.97;4984204;28;20086;-67
2022/02/05 11:30:27;;;;;;;31.70;19.55;;;;;;;-145.63;100.00;61273.97;4985216;28;20053;-66
2022/02/05 11:32:53;;;;;;;36.33;20.73;;;;;;;-145.63;100.00;61273.97;4984857;28;20034;-66
2022/02/05 11:35:41;;;;;;;36.58;21.05;;;;;;;-145.63;100.00;61273.97;4983609;28;20062;-66
2022/02/05 11:38:06;;;;;;;36.95;22.73;;;;;;;-145.63;100.00;61273.97;4984542;28;20046;-66
2022/02/05 11:40:44;;;;;;;34.40;18.80;;;;;;;-145.63;100.00;61273.97;4982531;28;20033;-66
2022/02/05 11:43:15;;;;;;;29.13;17.27;;;;;;;-145.63;100.00;61273.97;4983343;28;20457;-62
2022/02/05 11:45:41;;;;;;;28.85;17.48;;;;;;;-145.63;100.00;61273.97;4985230;28;20085;-65
2022/02/05 11:48:44;;;;;;;25.85;16.73;;;;;;;-145.63;100.00;61273.97;4985084;28;20281;-62
2022/02/05 11:51:15;;;;;;;32.80;18.58;;;;;;;-145.63;100.00;61273.97;4983288;28;20034;-63
2022/02/05 11:54:05;;;;;;;27.73;16.85;;;;;;;-145.63;100.00;61273.97;4982128;28;20031;-61
2022/02/05 11:56:37;;;;;;;25.10;14.35;;;;;;;-145.63;100.00;61273.97;4979801;28;20051;-63
2022/02/05 11:59:03;;;;;;;20.50;12.77;;;;;;;-145.63;100.00;61273.97;4984713;28;20045;-65
2022/02/05 12:01:37;;;;;;;18.20;12.43;;;;;;;-145.63;100.00;61273.97;4982718;28;20026;-65
2022/02/05 12:04:19;;;;;;;18.02;12.27;;;;;;;-145.63;100.00;61273.97;4985057;28;20035;-64
2022/02/05 12:06:48;;;;;;;22.13;13.75;;;;;;;-145.63;100.00;61273.97;4984885;28;20031;-62
2022/02/05 12:09:36;;;;;;;24.77;12.63;;;;;;;-145.63;100.00;61273.97;4981221;28;20058;-62
2022/02/05 12:12:28;;;;;;;13.98;8.60;;;;;;;-145.63;100.00;61273.97;4980418;28;20322;-62
2022/02/05 12:15:12;;;;;;;12.40;8.52;;;;;;;-145.63;100.00;61273.97;4982629;28;20023;-63
2022/02/05 12:18:04;;;;;;;14.60;8.23;;;;;;;-145.63;100.00;61273.97;4983954;28;20085;-62
2022/02/05 12:20:34;;;;;;;13.07;8.38;;;;;;;-145.63;100.00;61273.97;4980827;28;20074;-62
2022/02/05 12:23:25;;;;;;;13.73;9.15;;;;;;;-145.63;100.00;61273.97;4976495;28;20476;-63
2022/02/05 12:26:08;;;;;;;14.50;9.63;;;;;;;-145.63;100.00;61273.97;4979974;28;20034;-62
2022/02/05 12:28:45;;;;;;;18.80;9.75;;;;;;;-145.63;100.00;61273.97;4980215;28;20035;-65
2022/02/05 12:31:16;;;;;;;17.42;10.65;;;;;;;-145.63;100.00;61273.97;4983674;28;20050;-66
2022/02/05 12:33:47;;;;;;;15.88;9.88;;;;;;;-145.63;100.00;61273.97;4982806;28;20027;-64
2022/02/05 12:36:57;;;;;;;19.85;10.80;;;;;;;-145.63;100.00;61273.97;4984040;28;20045;-62
2022/02/05 12:39:32;;;;;;;17.92;11.60;;;;;;;-145.63;100.00;61273.97;4977895;28;20050;-63
2022/02/05 12:42:06;;;;;;;20.27;11.02;;;;;;;-145.63;100.00;61273.97;4982556;28;20014;-64
2022/02/05 12:44:35;;;;;;;19.38;13.27;;;;;;;-145.63;100.00;61273.97;4984001;28;20066;-64
2022/02/05 12:47:06;;;;;;;19.70;13.45;;;;;;;-145.63;100.00;61273.97;4983493;28;20058;-64
2022/02/05 12:49:44;;;;;;;25.30;14.82;;;;;;;-145.63;100.00;61273.97;4983089;28;20319;-65
2022/02/05 12:52:10;;;;;;;19.23;12.70;;;;;;;-145.63;100.00;61273.97;4983580;28;20053;-65
2022/02/05 12:54:44;;;;;;;23.38;14.68;;;;;;;-145.63;100.00;61273.97;4983643;28;20026;-64
2022/02/05 12:57:19;;;;;;;27.13;16.30;;;;;;;-145.63;100.00;61273.97;4984027;28;20054;-64
2022/02/05 12:59:45;;;;;;;26.65;15.30;;;;;;;-145.63;100.00;61273.97;4983767;28;20206;-65
2022/02/05 13:02:13;;;;;;;26.23;15.95;;;;;;;-145.63;100.00;61273.97;4983744;28;20030;-66
2022/02/05 13:04:46;;;;;;;28.83;16.63;;;;;;;-145.63;100.00;61273.97;4983727;28;20069;-66
2022/02/05 13:07:23;;;;;;;22.95;15.93;;;;;;;-145.63;100.00;61273.97;4983104;28;20050;-64
2022/02/05 13:09:58;;;;;;;28.85;16.77;;;;;;;-145.63;100.00;61273.97;4974847;28;20050;-66
2022/02/05 13:12:33;;;;;;;25.60;16.08;;;;;;;-145.63;100.00;61273.97;4982232;28;20035;-63
2022/02/05 13:15:03;;;;;;;25.67;15.25;;;;;;;-145.63;100.00;61273.97;4983427;28;20215;-61
2022/02/05 13:26:15;;;;;;;23.77;13.82;;;;;;;-145.63;100.00;61273.97;4983394;28;20263;-59
2022/02/05 13:29:16;;;;;;;27.70;15.00;;;;;;;-145.63;100.00;61273.97;4983448;28;20078;-62
2022/02/05 13:34:35;;;;;;;22.58;13.15;;;;;;;-145.63;100.00;61273.97;4983184;28;20263;-64
2022/02/05 13:37:17;;;;;;;22.90;13.43;;;;;;;-145.63;100.00;61273.97;4982654;28;20027;-64
2022/02/05 13:40:00;;;;;;;24.73;13.35;;;;;;;-145.63;100.00;61273.97;4983072;28;20026;-64
2022/02/05 13:42:31;;;;;;;16.10;9.40;;;;;;;-145.63;100.00;61273.97;4981581;28;20192;-64
2022/02/05 13:45:10;;;;;;;17.55;10.77;;;;;;;-145.63;100.00;61273.97;4983169;28;20027;-64
2022/02/05 13:47:49;;;;;;;17.88;10.50;;;;;;;-145.63;100.00;61273.97;4982865;28;20065;-64
2022/02/05 13:50:29;;;;;;;16.45;9.55;;;;;;;-145.63;100.00;61273.97;4981592;28;20034;-64
2022/02/05 13:53:01;;;;;;;17.13;10.05;;;;;;;-145.63;100.00;61273.97;4982021;28;20034;-66
2022/02/05 13:55:29;;;;;;;15.80;8.82;;;;;;;-145.63;100.00;61273.97;4982098;28;20243;-65
2022/02/05 13:57:58;;;;;;;12.95;8.63;;;;;;;-145.63;100.00;61273.97;4973294;28;20308;-67
2022/02/05 14:00:36;;;;;;;14.20;8.13;;;;;;;-145.63;100.00;61273.97;4980676;28;20042;-69
2022/02/05 14:03:03;;;;;;;10.88;7.07;;;;;;;-145.63;100.00;61273.97;4981177;28;20039;-66
2022/02/05 14:05:29;;;;;;;10.93;7.05;;;;;;;-145.63;100.00;61273.97;4978530;28;20346;-67